Time;durP1;ratioP1;P1;durP2;ratioP2;P2;SDS_P1;SDS_P2;PMS_P1;PMS_P2;Temp;Humidity;BMP_temperature;BMP_pressure;BME280_temperature;BME280_humidity;BME280_pressure;Samples;Min_cycle;Max_cycle;Signal;HPM_P1;HPM_P2
2023/09/22 00:01:46;;;;;;;10.70;9.68;;;15.20;99.90;;;;;;5058609;28;20036;-60
2023/09/22 00:04:12;;;;;;;9.95;9.00;;;15.30;99.90;;;;;;5057478;28;20118;-60
2023/09/22 00:06:38;;;;;;;8.55;7.70;;;15.20;99.90;;;;;;5060622;28;20358;-60
2023/09/22 00:09:05;;;;;;;10.68;8.65;;;15.20;99.90;;;;;;5055066;28;20063;-60
2023/09/22 00:11:31;;;;;;;8.95;8.05;;;15.20;99.90;;;;;;5056518;28;20043;-60
2023/09/22 00:13:56;;;;;;;9.07;7.57;;;15.20;99.90;;;;;;5056304;28;20044;-62
2023/09/22 00:16:22;;;;;;;8.35;7.47;;;15.20;99.90;;;;;;5055593;28;20090;-59
2023/09/22 00:18:47;;;;;;;7.72;6.88;;;15.20;99.90;;;;;;5055411;28;20036;-61
2023/09/22 00:21:14;;;;;;;9.02;8.10;;;15.10;99.90;;;;;;5054815;28;20036;-58
2023/09/22 00:23:39;;;;;;;;;;;15.10;99.90;;;;;;5054787;28;20051;-62
2023/09/22 00:26:05;;;;;;;8.25;7.32;;;15.10;99.90;;;;;;5055853;28;19917;-62
2023/09/22 00:28:30;;;;;;;7.85;6.95;;;15.10;99.90;;;;;;5056175;28;20075;-58
2023/09/22 00:30:56;;;;;;;7.78;7.07;;;15.10;99.90;;;;;;5058103;28;20055;-60
2023/09/22 00:33:22;;;;;;;8.57;7.28;;;15.10;99.90;;;;;;5053697;28;20474;-60
2023/09/22 00:35:47;;;;;;;8.57;7.68;;;15.10;99.90;;;;;;5055026;28;20043;-61
2023/09/22 00:38:13;;;;;;;7.72;7.00;;;15.10;99.90;;;;;;5054877;28;20118;-60
2023/09/22 00:40:38;;;;;;;9.55;7.97;;;15.10;99.90;;;;;;5058757;28;20039;-60
2023/09/22 00:43:11;;;;;;;12.45;8.02;;;15.10;99.90;;;;;;5059561;28;20487;-60
2023/09/22 00:45:42;;;;;;;8.93;8.02;;;15.10;99.90;;;;;;5059630;28;20047;-60
2023/09/22 00:48:09;;;;;;;8.88;8.07;;;15.10;99.90;;;;;;5055472;28;20481;-61
2023/09/22 00:50:37;;;;;;;8.70;7.78;;;15.10;99.90;;;;;;5059931;28;20045;-60
2023/09/22 00:53:03;;;;;;;10.60;8.68;;;15.00;99.90;;;;;;5057214;28;20086;-60
2023/09/22 00:55:29;;;;;;;12.20;7.40;;;15.00;99.90;;;;;;5054636;28;20120;-59
2023/09/22 00:57:54;;;;;;;11.85;8.68;;;15.00;99.90;;;;;;5056031;28;20119;-59
2023/09/22 01:00:20;;;;;;;8.82;8.13;;;15.00;99.90;;;;;;5054702;28;20099;-60
2023/09/22 01:02:46;;;;;;;11.40;8.07;;;15.00;99.90;;;;;;5057067;28;20056;-60
2023/09/22 01:05:11;;;;;;;9.85;8.80;;;15.00;99.90;;;;;;5057253;28;20032;-60
2023/09/22 01:07:38;;;;;;;10.88;9.50;;;15.00;99.90;;;;;;5057417;28;20032;-61
2023/09/22 01:10:11;;;;;;;10.50;9.18;;;15.00;99.90;;;;;;5056361;28;20052;-60
2023/09/22 01:12:36;;;;;;;11.43;9.45;;;15.00;99.90;;;;;;5058008;28;20045;-61
2023/09/22 01:15:02;;;;;;;10.23;9.30;;;15.00;99.90;;;;;;5060020;28;20037;-60
2023/09/22 01:17:28;;;;;;;11.20;9.20;;;15.00;99.90;;;;;;5061334;28;20167;-60
2023/09/22 01:19:54;;;;;;;15.38;10.10;;;15.00;99.90;;;;;;5057427;28;20094;-60
2023/09/22 01:22:20;;;;;;;11.23;10.07;;;15.00;99.90;;;;;;5059308;28;20530;-60
2023/09/22 01:24:45;;;;;;;;;;;15.00;99.90;;;;;;5055248;28;20267;-58
2023/09/22 01:27:11;;;;;;;13.05;11.23;;;15.00;99.90;;;;;;5056092;28;20294;-60
2023/09/22 01:29:36;;;;;;;13.80;11.35;;;15.00;99.90;;;;;;5054482;28;20095;-61
2023/09/22 01:32:02;;;;;;;14.30;12.02;;;15.00;99.90;;;;;;5054281;28;20031;-60
2023/09/22 01:34:28;;;;;;;13.82;12.35;;;15.00;99.90;;;;;;5057792;28;20033;-61
2023/09/22 01:36:54;;;;;;;15.40;13.80;;;15.00;99.90;;;;;;5054441;28;20029;-60
2023/09/22 01:39:19;;;;;;;19.38;12.40;;;15.00;99.90;;;;;;5054287;28;20633;-60
2023/09/22 01:41:45;;;;;;;22.83;14.13;;;15.00;99.90;;;;;;5052309;28;20032;-60
2023/09/22 01:44:11;;;;;;;15.95;12.40;;;15.00;99.90;;;;;;5053380;28;20125;-61
2023/09/22 01:46:37;;;;;;;16.20;13.18;;;15.00;99.90;;;;;;5055318;28;20036;-57
2023/09/22 01:49:02;;;;;;;14.35;12.85;;;15.00;99.90;;;;;;5058405;28;20047;-60
2023/09/22 01:51:28;;;;;;;17.05;13.15;;;15.00;99.90;;;;;;5058177;28;20075;-58
2023/09/22 01:53:55;;;;;;;16.75;13.27;;;15.00;99.90;;;;;;5058798;28;20527;-60
2023/09/22 01:56:21;;;;;;;16.27;14.48;;;15.00;99.90;;;;;;5059605;28;20037;-60
2023/09/22 01:58:48;;;;;;;19.42;14.75;;;15.00;99.90;;;;;;5060626;28;20046;-58
2023/09/22 02:01:14;;;;;;;16.77;14.25;;;15.00;99.90;;;;;;5056349;28;20037;-60
2023/09/22 02:03:40;;;;;;;18.63;15.38;;;15.00;99.90;;;;;;5057563;28;20101;-62
2023/09/22 02:06:05;;;;;;;17.83;14.68;;;15.00;99.90;;;;;;5056259;28;20036;-60
2023/09/22 02:08:31;;;;;;;19.45;15.27;;;14.90;99.90;;;;;;5056846;28;20041;-60
2023/09/22 02:10:57;;;;;;;18.20;14.70;;;14.90;99.90;;;;;;5055467;28;20040;-58
2023/09/22 02:13:22;;;;;;;18.45;16.38;;;14.90;99.90;;;;;;5051678;28;20040;-56
2023/09/22 02:15:48;;;;;;;20.88;17.05;;;14.90;99.90;;;;;;5054225;28;20070;-59
2023/09/22 02:18:14;;;;;;;21.52;16.70;;;14.90;99.90;;;;;;5053120;28;20136;-62
2023/09/22 02:20:42;;;;;;;19.55;16.50;;;14.90;99.90;;;;;;5057601;28;20079;-60
2023/09/22 02:23:07;;;;;;;26.17;19.27;;;14.90;99.90;;;;;;5053959;28;20126;-58
2023/09/22 02:25:33;;;;;;;20.77;16.60;;;14.90;99.90;;;;;;5054975;28;20414;-58
2023/09/22 02:27:59;;;;;;;;;;;14.90;99.90;;;;;;5057297;28;20095;-61
2023/09/22 02:30:26;;;;;;;19.70;16.58;;;14.90;99.90;;;;;;5054446;28;19933;-56
2023/09/22 02:32:52;;;;;;;21.05;17.05;;;14.80;99.90;;;;;;5056266;28;20048;-56
2023/09/22 02:35:19;;;;;;;18.27;15.95;;;14.90;99.90;;;;;;5059173;28;20032;-55
2023/09/22 02:37:45;;;;;;;18.60;16.60;;;14.90;99.90;;;;;;5059928;28;20036;-56
2023/09/22 02:40:14;;;;;;;;;;;14.90;99.90;;;;;;5056047;28;20108;-58
2023/09/22 02:42:40;;;;;;;20.27;17.33;;;14.90;99.90;;;;;;5051425;28;20366;-59
2023/09/22 02:45:08;;;;;;;19.45;16.42;;;14.80;99.90;;;;;;5055991;28;20041;-58
2023/09/22 02:47:35;;;;;;;20.60;16.20;;;14.80;99.90;;;;;;5055976;28;20048;-56
2023/09/22 02:50:01;;;;;;;18.83;16.38;;;14.80;99.90;;;;;;5051295;28;20066;-59
2023/09/22 02:52:26;;;;;;;19.25;16.60;;;14.80;99.90;;;;;;5050052;28;20037;-61
2023/09/22 02:54:57;;;;;;;21.00;17.55;;;14.80;99.90;;;;;;5056191;28;20403;-61
2023/09/22 02:57:23;;;;;;;20.83;17.23;;;14.80;99.90;;;;;;5054375;28;20044;-58
2023/09/22 02:59:55;;;;;;;23.17;17.30;;;14.80;99.90;;;;;;5055362;28;20037;-60
2023/09/22 03:02:21;;;;;;;22.40;18.05;;;14.80;99.90;;;;;;5058524;28;20051;-60
2023/09/22 03:04:47;;;;;;;21.85;16.90;;;14.80;99.90;;;;;;5056555;28;20033;-60
2023/09/22 03:07:13;;;;;;;16.20;14.52;;;14.70;99.90;;;;;;5058519;28;20032;-60
2023/09/22 03:09:38;;;;;;;22.05;16.77;;;14.70;99.90;;;;;;5058278;28;20115;-57
2023/09/22 03:12:05;;;;;;;23.65;16.88;;;14.70;99.90;;;;;;5062037;28;20127;-56
2023/09/22 03:14:31;;;;;;;;;;;14.70;99.90;;;;;;5062899;28;20075;-57
2023/09/22 03:16:57;;;;;;;15.68;13.98;;;14.70;99.90;;;;;;5061939;28;20390;-59
2023/09/22 03:19:23;;;;;;;17.65;14.25;;;14.70;99.90;;;;;;5060442;28;20088;-59
2023/09/22 03:21:49;;;;;;;14.23;11.38;;;14.70;99.90;;;;;;5063609;28;20520;-59
2023/09/22 03:24:15;;;;;;;14.93;12.18;;;14.70;99.90;;;;;;5057076;28;20037;-58
2023/09/22 03:26:41;;;;;;;18.17;12.10;;;14.70;99.90;;;;;;5062130;28;20048;-58
2023/09/22 03:29:06;;;;;;;16.55;13.45;;;14.70;99.90;;;;;;5064619;28;20396;-56
2023/09/22 03:31:32;;;;;;;12.82;11.38;;;14.70;99.90;;;;;;5053743;28;20041;-59
2023/09/22 03:33:58;;;;;;;16.77;12.05;;;14.70;99.90;;;;;;5053680;28;20037;-55
2023/09/22 03:36:24;;;;;;;16.08;12.13;;;14.60;99.90;;;;;;5052530;28;20381;-53
2023/09/22 03:38:51;;;;;;;;;;;14.60;99.90;;;;;;5056674;28;20112;-55
2023/09/22 03:41:18;;;;;;;20.77;14.25;;;14.60;99.90;;;;;;5058061;28;19916;-59
2023/09/22 03:43:43;;;;;;;;;;;14.60;99.90;;;;;;5057271;28;20033;-54
2023/09/22 03:46:13;;;;;;;21.30;15.32;;;14.60;99.90;;;;;;5056455;28;19951;-59
2023/09/22 03:48:38;;;;;;;22.30;16.02;;;14.60;99.90;;;;;;5057656;28;20431;-53
2023/09/22 03:51:05;;;;;;;16.67;14.15;;;14.60;99.90;;;;;;5058018;28;20045;-60
2023/09/22 03:53:31;;;;;;;19.23;16.10;;;14.50;99.90;;;;;;5060003;28;20033;-59
2023/09/22 03:56:00;;;;;;;24.33;16.50;;;14.50;99.90;;;;;;5061683;28;20260;-59
2023/09/22 03:58:26;;;;;;;20.13;16.25;;;14.50;99.90;;;;;;5061058;28;20033;-58
2023/09/22 04:00:52;;;;;;;20.60;17.38;;;14.50;99.90;;;;;;5060237;28;20037;-58
2023/09/22 04:03:18;;;;;;;19.98;17.55;;;14.50;99.90;;;;;;5058538;28;20036;-59
2023/09/22 04:05:44;;;;;;;19.42;17.42;;;14.50;99.90;;;;;;5052992;28;20082;-55
2023/09/22 04:08:10;;;;;;;24.20;19.55;;;14.50;99.90;;;;;;5058239;28;20173;-60
2023/09/22 04:10:36;;;;;;;22.77;18.73;;;14.50;99.90;;;;;;5053823;28;20040;-58
2023/09/22 04:13:02;;;;;;;24.10;20.33;;;14.40;99.90;;;;;;5055322;28;20032;-58
2023/09/22 04:15:27;;;;;;;25.27;22.20;;;14.40;99.90;;;;;;5053692;28;20079;-60
2023/09/22 04:17:53;;;;;;;27.55;23.40;;;14.40;99.90;;;;;;5056083;28;20068;-56
2023/09/22 04:20:28;;;;;;;25.45;20.85;;;14.30;99.90;;;;;;5054791;28;20064;-57
2023/09/22 04:22:58;;;;;;;28.08;22.33;;;14.30;99.90;;;;;;5057435;28;20400;-60
2023/09/22 04:25:33;;;;;;;26.67;22.33;;;14.20;99.90;;;;;;5057256;28;20537;-59
2023/09/22 04:28:09;;;;;;;30.60;23.90;;;14.10;99.90;;;;;;5055490;28;20075;-54
2023/09/22 04:30:39;;;;;;;26.63;23.55;;;14.10;99.90;;;;;;5052479;28;20090;-60
2023/09/22 04:33:05;;;;;;;29.25;24.63;;;14.00;99.90;;;;;;5054428;28;20049;-60
2023/09/22 04:35:32;;;;;;;30.55;24.20;;;14.00;99.90;;;;;;5055477;28;20039;-58
2023/09/22 04:38:02;;;;;;;29.90;23.95;;;14.00;99.90;;;;;;5054211;28;20068;-59
2023/09/22 04:40:34;;;;;;;30.00;24.95;;;13.90;99.90;;;;;;5059939;28;20400;-59
2023/09/22 04:43:00;;;;;;;34.03;25.55;;;13.80;99.90;;;;;;5059242;28;20165;-59
2023/09/22 04:45:26;;;;;;;34.55;28.23;;;13.80;99.90;;;;;;5058131;28;20116;-60
2023/09/22 04:47:52;;;;;;;35.55;27.35;;;13.70;99.90;;;;;;5056193;28;20048;-57
2023/09/22 04:50:18;;;;;;;34.75;27.48;;;13.70;99.90;;;;;;5057672;28;20040;-57
2023/09/22 04:52:45;;;;;;;;;;;13.60;99.90;;;;;;5056323;28;20116;-57
2023/09/22 04:55:11;;;;;;;35.92;26.92;;;13.60;99.90;;;;;;5056498;28;19916;-54
2023/09/22 04:57:37;;;;;;;33.33;26.92;;;13.60;99.90;;;;;;5056733;28;20102;-58
2023/09/22 05:00:13;;;;;;;39.13;28.58;;;13.60;99.90;;;;;;5062087;28;20037;-59
2023/09/22 05:02:39;;;;;;;38.03;28.88;;;13.50;99.90;;;;;;5064436;28;20036;-55
2023/09/22 05:05:06;;;;;;;38.20;27.90;;;13.50;99.90;;;;;;5067850;28;20495;-56
2023/09/22 05:07:33;;;;;;;37.60;28.20;;;13.50;99.90;;;;;;5067133;28;20045;-54
2023/09/22 05:09:59;;;;;;;42.38;29.35;;;13.40;99.90;;;;;;5068199;28;20041;-55
2023/09/22 05:12:25;;;;;;;38.13;28.33;;;13.40;99.90;;;;;;5060350;28;20098;-57
2023/09/22 05:14:51;;;;;;;;;;;13.40;99.90;;;;;;5064329;28;20032;-57
2023/09/22 05:17:17;;;;;;;39.85;27.40;;;13.40;99.90;;;;;;5070045;28;19916;-58
2023/09/22 05:19:42;;;;;;;38.35;27.45;;;13.30;99.90;;;;;;5069487;28;20028;-59
2023/09/22 05:22:08;;;;;;;37.65;26.23;;;13.30;99.90;;;;;;5064690;28;20051;-58
2023/09/22 05:24:34;;;;;;;36.35;24.80;;;13.30;99.90;;;;;;5062008;28;20040;-55
2023/09/22 05:27:00;;;;;;;33.70;24.80;;;13.20;99.90;;;;;;5061081;28;20060;-57
2023/09/22 05:29:25;;;;;;;35.92;23.98;;;13.20;99.90;;;;;;5059815;28;20686;-57
2023/09/22 05:31:51;;;;;;;28.50;20.67;;;13.20;99.90;;;;;;5062123;28;20032;-58
2023/09/22 05:34:17;;;;;;;33.88;22.95;;;13.20;99.90;;;;;;5059656;28;20513;-51
2023/09/22 05:36:42;;;;;;;;;;;13.10;99.90;;;;;;5061454;28;20070;-59
2023/09/22 05:39:10;;;;;;;31.38;19.15;;;13.10;99.90;;;;;;5063228;28;19966;-57
2023/09/22 05:41:36;;;;;;;33.13;20.00;;;13.10;99.90;;;;;;5070019;28;20071;-57
2023/09/22 05:44:02;;;;;;;30.55;19.85;;;13.10;99.90;;;;;;5064269;28;20178;-59
2023/09/22 05:46:31;;;;;;;30.40;19.00;;;13.10;99.90;;;;;;5068839;28;20032;-58
2023/09/22 05:48:57;;;;;;;25.42;18.40;;;13.10;99.90;;;;;;5067481;28;20043;-54
2023/09/22 05:51:23;;;;;;;25.95;18.58;;;13.10;99.90;;;;;;5068517;28;20550;-59
2023/09/22 05:53:51;;;;;;;26.08;17.30;;;13.20;99.90;;;;;;5066211;28;20072;-60
2023/09/22 05:56:17;;;;;;;25.30;16.50;;;13.20;99.90;;;;;;5064111;28;20270;-55
2023/09/22 05:58:42;;;;;;;23.45;16.55;;;13.30;99.90;;;;;;5062482;28;20044;-60
2023/09/22 06:01:13;;;;;;;23.20;15.57;;;13.40;99.90;;;;;;5068804;28;20037;-57
2023/09/22 06:03:40;;;;;;;23.73;14.18;;;13.50;99.90;;;;;;5063891;28;20062;-58
2023/09/22 06:06:08;;;;;;;19.65;13.85;;;13.50;99.90;;;;;;5067091;28;20040;-59
2023/09/22 06:08:33;;;;;;;21.27;13.95;;;13.60;99.90;;;;;;5066943;28;20048;-59
2023/09/22 06:10:59;;;;;;;19.35;12.35;;;13.60;99.90;;;;;;5068656;28;20510;-59
2023/09/22 06:13:25;;;;;;;18.67;13.90;;;13.60;99.90;;;;;;5067115;28;20052;-59
2023/09/22 06:15:51;;;;;;;21.95;13.13;;;13.60;99.90;;;;;;5060123;28;20041;-55
2023/09/22 06:18:18;;;;;;;20.60;13.07;;;13.60;99.90;;;;;;5049861;28;20067;-58
2023/09/22 06:20:45;;;;;;;12.40;9.57;;;13.60;99.90;;;;;;5057734;28;20495;-55
2023/09/22 06:23:10;;;;;;;16.27;10.88;;;13.70;99.90;;;;;;5057245;28;20044;-57
2023/09/22 06:25:36;;;;;;;16.88;11.13;;;13.70;99.90;;;;;;5054682;28;20102;-56
2023/09/22 06:28:05;;;;;;;20.23;12.13;;;13.80;99.90;;;;;;5056409;28;20071;-57
2023/09/22 06:30:34;;;;;;;19.48;11.77;;;13.80;99.90;;;;;;5059093;28;20067;-56
2023/09/22 06:33:02;;;;;;;15.80;12.18;;;13.80;99.90;;;;;;5047591;28;20041;-58
2023/09/22 06:35:27;;;;;;;20.08;12.35;;;13.80;99.90;;;;;;5053616;28;20041;-59
2023/09/22 06:37:53;;;;;;;20.38;12.38;;;13.80;99.90;;;;;;5044798;28;20051;-57
2023/09/22 06:40:19;;;;;;;16.35;11.40;;;13.80;99.90;;;;;;5057017;28;20044;-53
2023/09/22 06:42:45;;;;;;;19.70;11.82;;;13.80;99.90;;;;;;5064529;28;20515;-56
2023/09/22 06:45:15;;;;;;;15.55;11.32;;;13.70;99.90;;;;;;5063721;28;20040;-57
2023/09/22 06:47:42;;;;;;;14.98;11.18;;;13.70;99.90;;;;;;5054016;28;20036;-57
2023/09/22 06:50:08;;;;;;;21.75;11.00;;;13.70;99.90;;;;;;5066324;28;20053;-56
2023/09/22 06:52:35;;;;;;;20.33;11.43;;;13.70;99.90;;;;;;5054966;28;20044;-60
2023/09/22 06:55:01;;;;;;;18.45;12.50;;;13.70;99.90;;;;;;5048774;28;20048;-56
2023/09/22 06:57:26;;;;;;;16.25;10.93;;;13.70;99.90;;;;;;5057965;28;20033;-56
2023/09/22 06:59:52;;;;;;;20.67;12.00;;;13.70;99.90;;;;;;5051087;28;20108;-57
2023/09/22 07:02:18;;;;;;;19.60;11.25;;;13.70;99.90;;;;;;5049064;28;20242;-60
2023/09/22 07:04:44;;;;;;;14.57;10.90;;;13.80;99.90;;;;;;5052673;28;20410;-58
2023/09/22 07:07:13;;;;;;;16.83;11.85;;;13.70;99.90;;;;;;5056289;28;20119;-56
2023/09/22 07:09:43;;;;;;;17.08;11.88;;;13.80;99.90;;;;;;5057670;28;20115;-56
2023/09/22 07:12:08;;;;;;;17.10;11.27;;;13.80;99.90;;;;;;5051339;28;20430;-55
2023/09/22 07:14:34;;;;;;;21.30;12.93;;;13.80;99.90;;;;;;5054537;28;20048;-55
2023/09/22 07:17:00;;;;;;;22.33;11.98;;;13.80;99.90;;;;;;5056014;28;20344;-59
2023/09/22 07:19:25;;;;;;;15.90;10.95;;;13.90;99.90;;;;;;5065075;28;20380;-59
2023/09/22 07:21:51;;;;;;;16.70;11.02;;;13.90;99.90;;;;;;5063915;28;20353;-56
2023/09/22 07:24:17;;;;;;;17.92;11.07;;;13.90;99.90;;;;;;5062470;28;20502;-55
2023/09/22 07:26:43;;;;;;;;;;;14.00;99.90;;;;;;5064908;28;20388;-56
2023/09/22 07:29:09;;;;;;;17.42;10.52;;;14.00;99.90;;;;;;5069666;28;19982;-58
2023/09/22 07:31:34;;;;;;;17.38;11.27;;;14.00;99.90;;;;;;5065698;28;20051;-59
2023/09/22 07:34:00;;;;;;;13.95;10.65;;;14.10;99.90;;;;;;5063133;28;20087;-58
2023/09/22 07:36:26;;;;;;;13.57;9.85;;;14.10;99.90;;;;;;5062988;28;20090;-54
2023/09/22 07:38:53;;;;;;;14.52;10.73;;;14.10;99.90;;;;;;5067886;28;20074;-55
2023/09/22 07:41:19;;;;;;;13.68;10.38;;;14.10;99.90;;;;;;5064880;28;20063;-57
2023/09/22 07:43:45;;;;;;;14.82;9.80;;;14.10;99.90;;;;;;5071606;28;20062;-58
2023/09/22 07:46:11;;;;;;;12.05;9.55;;;14.20;99.90;;;;;;5068386;28;20044;-53
2023/09/22 07:48:37;;;;;;;15.93;9.38;;;14.20;99.90;;;;;;5054846;28;20048;-56
2023/09/22 07:51:03;;;;;;;13.07;7.93;;;14.20;99.90;;;;;;5056881;28;20063;-51
2023/09/22 07:53:29;;;;;;;11.73;8.55;;;14.20;99.90;;;;;;5056452;28;20044;-51
2023/09/22 07:55:55;;;;;;;10.52;7.65;;;14.20;99.90;;;;;;5055850;28;20504;-56
2023/09/22 07:58:25;;;;;;;14.25;7.78;;;14.20;99.90;;;;;;5051843;28;20045;-55
2023/09/22 08:00:51;;;;;;;8.93;6.97;;;14.30;99.90;;;;;;5048893;28;20033;-57
2023/09/22 08:03:21;;;;;;;9.95;5.93;;;14.30;99.90;;;;;;5052977;28;20033;-58
2023/09/22 08:05:49;;;;;;;11.90;6.00;;;14.40;99.90;;;;;;5054429;28;20041;-53
2023/09/22 08:08:15;;;;;;;8.93;4.68;;;14.50;99.90;;;;;;5043727;28;20044;-59
2023/09/22 08:10:41;;;;;;;10.48;4.55;;;14.60;99.90;;;;;;5050639;28;20458;-59
2023/09/22 08:13:10;;;;;;;7.93;4.15;;;14.70;99.90;;;;;;5055637;28;20515;-59
2023/09/22 08:15:37;;;;;;;5.47;3.10;;;14.80;99.90;;;;;;5058992;28;20448;-60
2023/09/22 08:18:06;;;;;;;6.53;3.70;;;14.90;99.90;;;;;;5060438;28;20150;-58
2023/09/22 08:20:35;;;;;;;5.75;3.03;;;15.10;99.90;;;;;;5055977;28;20075;-59
2023/09/22 08:23:02;;;;;;;4.32;2.53;;;15.20;99.90;;;;;;5053672;28;20119;-57
2023/09/22 08:25:28;;;;;;;7.75;2.72;;;15.20;99.90;;;;;;5048976;28;20045;-56
2023/09/22 08:27:56;;;;;;;5.28;2.00;;;15.20;99.90;;;;;;5049446;28;20493;-57
2023/09/22 08:30:23;;;;;;;5.00;2.65;;;15.10;99.90;;;;;;5057193;28;20090;-58
2023/09/22 08:32:49;;;;;;;6.13;2.72;;;15.20;99.90;;;;;;5055825;28;20123;-57
2023/09/22 08:35:15;;;;;;;3.55;2.28;;;15.20;99.90;;;;;;5049539;28;20124;-58
2023/09/22 08:37:42;;;;;;;3.70;2.33;;;15.20;99.90;;;;;;5044874;28;20123;-59
2023/09/22 08:40:08;;;;;;;;;;;15.20;99.90;;;;;;5045301;28;20660;-60
2023/09/22 08:42:35;;;;;;;5.18;1.88;;;15.20;99.90;;;;;;5054080;28;20322;-60
2023/09/22 08:45:01;;;;;;;3.72;1.52;;;15.20;99.90;;;;;;5051336;28;20465;-59
2023/09/22 08:47:26;;;;;;;4.90;1.42;;;15.30;99.90;;;;;;5048015;28;20033;-57
2023/09/22 08:49:52;;;;;;;3.72;1.40;;;15.40;99.90;;;;;;5050134;28;20033;-60
2023/09/22 08:52:20;;;;;;;2.30;1.20;;;15.40;99.90;;;;;;5049987;28;20048;-60
2023/09/22 08:54:46;;;;;;;3.78;1.35;;;15.40;99.90;;;;;;5052703;28;20082;-60
2023/09/22 08:57:14;;;;;;;2.33;1.17;;;15.60;99.90;;;;;;5051012;28;20036;-59
2023/09/22 08:59:41;;;;;;;2.95;0.98;;;15.70;99.90;;;;;;5046081;28;20040;-61
2023/09/22 09:02:09;;;;;;;4.40;1.27;;;15.70;99.90;;;;;;5066760;28;20119;-59
2023/09/22 09:04:40;;;;;;;4.40;1.23;;;15.80;99.90;;;;;;5049909;28;20040;-59
2023/09/22 09:07:08;;;;;;;1.48;0.88;;;15.70;99.90;;;;;;5053886;28;20041;-61
2023/09/22 09:09:43;;;;;;;1.20;0.93;;;15.60;99.90;;;;;;5051383;28;20280;-58
2023/09/22 09:12:09;;;;;;;3.00;0.93;;;15.60;99.90;;;;;;5046731;28;20052;-59
2023/09/22 09:14:38;;;;;;;7.03;0.75;;;15.60;99.90;;;;;;5055067;28;20076;-58
2023/09/22 09:17:19;;;;;;;4.47;1.00;;;15.70;99.90;;;;;;5053066;28;20051;-60
2023/09/22 09:19:56;;;;;;;5.53;0.82;;;15.80;99.90;;;;;;5060134;28;20734;-61
2023/09/22 09:22:30;;;;;;;1.33;0.80;;;15.90;99.90;;;;;;5055290;28;20036;-60
2023/09/22 09:25:02;;;;;;;2.35;0.80;;;15.90;99.90;;;;;;5052814;28;20033;-60
2023/09/22 09:27:28;;;;;;;5.10;0.70;;;16.00;99.90;;;;;;5053225;28;20037;-61
2023/09/22 09:29:55;;;;;;;2.88;0.47;;;16.10;99.90;;;;;;5055548;28;20063;-61
2023/09/22 09:32:24;;;;;;;2.72;0.63;;;16.20;99.90;;;;;;5050888;28;20044;-61
2023/09/22 09:34:50;;;;;;;2.10;0.60;;;16.20;99.90;;;;;;5053350;28;20185;-61
2023/09/22 09:37:17;;;;;;;4.45;0.60;;;16.30;99.90;;;;;;5054703;28;20032;-61
2023/09/22 09:39:47;;;;;;;1.58;0.80;;;16.40;99.90;;;;;;5046479;28;20048;-58
2023/09/22 09:42:22;;;;;;;4.03;0.50;;;16.50;99.90;;;;;;5055244;28;20650;-61
2023/09/22 09:44:50;;;;;;;5.07;0.68;;;16.70;99.90;;;;;;5050358;28;20037;-63
2023/09/22 09:47:27;;;;;;;2.10;0.50;;;16.80;99.90;;;;;;5049522;28;20045;-61
2023/09/22 09:49:57;;;;;;;1.70;0.57;;;17.00;99.90;;;;;;5055841;28;20077;-63
2023/09/22 09:52:51;;;;;;;2.13;0.50;;;17.10;99.90;;;;;;5054981;28;20041;-62
2023/09/22 09:55:20;;;;;;;2.58;0.85;;;17.10;99.90;;;;;;5056618;28;20041;-61
2023/09/22 09:57:46;;;;;;;2.85;0.60;;;17.20;99.90;;;;;;5059755;28;20399;-61
2023/09/22 10:00:19;;;;;;;4.78;0.85;;;17.10;99.90;;;;;;5069712;28;20039;-61
2023/09/22 10:02:46;;;;;;;1.00;0.30;;;17.20;99.90;;;;;;5060147;28;20040;-61
2023/09/22 10:05:19;;;;;;;1.38;0.30;;;17.20;99.90;;;;;;5053273;28;20044;-62
2023/09/22 10:07:46;;;;;;;1.58;0.30;;;17.30;99.90;;;;;;5052276;28;20051;-63
2023/09/22 10:10:15;;;;;;;1.58;0.30;;;17.40;99.90;;;;;;5057364;28;20380;-61
2023/09/22 10:12:43;;;;;;;3.03;0.30;;;17.50;99.90;;;;;;5052387;28;20337;-61
2023/09/22 10:15:10;;;;;;;3.80;0.32;;;17.70;99.90;;;;;;5064658;28;20147;-60
2023/09/22 10:17:36;;;;;;;0.98;0.30;;;17.80;99.90;;;;;;5056792;28;20407;-61
2023/09/22 10:20:10;;;;;;;1.88;0.45;;;17.80;99.90;;;;;;5060316;28;20046;-63
2023/09/22 10:22:40;;;;;;;1.70;0.63;;;17.80;99.90;;;;;;5058012;28;20029;-62
2023/09/22 10:25:15;;;;;;;6.57;0.40;;;17.70;99.90;;;;;;5064591;28;20041;-62
2023/09/22 10:28:02;;;;;;;0.82;0.40;;;17.60;99.90;;;;;;5058954;28;20110;-64
2023/09/22 10:30:43;;;;;;;2.05;0.30;;;17.40;99.90;;;;;;5061265;28;20036;-61
2023/09/22 10:33:24;;;;;;;2.05;0.20;;;17.20;99.90;;;;;;5060905;28;20127;-62
2023/09/22 10:35:49;;;;;;;0.73;0.30;;;17.00;99.90;;;;;;5059694;28;20512;-59
2023/09/22 10:38:15;;;;;;;3.38;0.65;;;16.90;99.90;;;;;;5061527;28;21649;-61
2023/09/22 10:40:59;;;;;;;1.38;0.13;;;16.90;99.90;;;;;;5053559;28;20033;-62
2023/09/22 10:43:26;;;;;;;1.27;0.20;;;17.00;99.90;;;;;;5052214;28;20557;-62
2023/09/22 10:45:52;;;;;;;2.28;0.20;;;17.10;99.90;;;;;;5066382;28;20098;-59
2023/09/22 10:48:18;;;;;;;;;;;17.20;99.90;;;;;;5057998;28;20445;-62
2023/09/22 10:50:49;;;;;;;1.05;0.50;;;17.30;99.90;;;;;;5062335;28;19991;-60
2023/09/22 10:53:15;;;;;;;0.70;0.30;;;17.40;99.90;;;;;;5063861;28;20075;-63
2023/09/22 10:55:43;;;;;;;1.33;0.30;;;17.50;99.90;;;;;;5065013;28;20406;-62
2023/09/22 10:58:15;;;;;;;0.55;0.20;;;17.50;99.90;;;;;;5062251;28;20053;-62
2023/09/22 11:00:53;;;;;;;2.20;0.30;;;17.50;99.90;;;;;;5065331;28;20033;-63
2023/09/22 11:03:19;;;;;;;3.83;0.30;;;17.50;99.90;;;;;;5066792;28;20048;-60
2023/09/22 11:05:55;;;;;;;0.75;0.30;;;17.50;99.90;;;;;;5064908;28;20036;-62
2023/09/22 11:08:20;;;;;;;5.40;0.30;;;17.50;99.90;;;;;;5066386;28;20047;-62
2023/09/22 11:10:51;;;;;;;1.17;0.35;;;17.60;99.90;;;;;;5055235;28;20283;-63
2023/09/22 11:13:18;;;;;;;0.88;0.20;;;17.60;99.90;;;;;;5061681;28;20041;-61
2023/09/22 11:15:51;;;;;;;0.55;0.20;;;17.70;99.90;;;;;;5059472;28;20036;-60
2023/09/22 11:18:26;;;;;;;0.52;0.10;;;17.70;99.90;;;;;;5066878;28;20820;-61
2023/09/22 11:21:08;;;;;;;2.92;0.20;;;17.70;99.90;;;;;;5057704;28;20033;-61
2023/09/22 11:23:38;;;;;;;0.60;0.20;;;17.60;99.90;;;;;;5067295;28;20107;-61
2023/09/22 11:26:13;;;;;;;0.85;0.20;;;17.50;99.90;;;;;;5063708;28;20052;-61
2023/09/22 11:28:41;;;;;;;1.50;0.20;;;17.50;99.90;;;;;;5059212;28;20128;-61
2023/09/22 11:31:12;;;;;;;0.70;0.20;;;17.40;99.90;;;;;;5059770;28;20091;-61
2023/09/22 11:33:39;;;;;;;1.80;0.20;;;17.40;99.90;;;;;;5060054;28;20036;-60
2023/09/22 11:36:05;;;;;;;4.47;0.47;;;17.30;99.90;;;;;;5064087;28;20048;-59
2023/09/22 11:38:32;;;;;;;1.17;0.20;;;17.40;99.90;;;;;;5060395;28;20039;-60
2023/09/22 11:41:08;;;;;;;0.40;0.30;;;17.40;99.90;;;;;;5062315;28;20491;-57
2023/09/22 11:43:38;;;;;;;0.23;0.10;;;17.40;99.90;;;;;;5064429;28;20241;-62
2023/09/22 11:46:08;;;;;;;1.85;0.30;;;17.40;99.90;;;;;;5063009;28;20539;-58
2023/09/22 11:49:02;;;;;;;0.85;0.30;;;17.40;99.90;;;;;;5063863;28;20051;-61
2023/09/22 11:51:48;;;;;;;1.45;0.28;;;17.30;99.90;;;;;;5060533;28;20068;-61
2023/09/22 11:54:15;;;;;;;2.35;0.32;;;17.30;99.90;;;;;;5059181;28;20055;-61
2023/09/22 11:56:41;;;;;;;1.13;0.20;;;17.30;99.90;;;;;;5059650;28;20083;-62
2023/09/22 11:59:18;;;;;;;3.10;0.28;;;17.20;99.90;;;;;;5063371;28;20095;-62
2023/09/22 12:01:45;;;;;;;1.27;0.20;;;17.20;99.90;;;;;;5067060;28;20115;-60
2023/09/22 12:04:12;;;;;;;1.17;0.20;;;17.10;99.90;;;;;;5065023;28;20044;-60
2023/09/22 12:06:42;;;;;;;4.68;0.40;;;17.20;99.90;;;;;;5066920;28;20040;-61
2023/09/22 12:09:12;;;;;;;0.40;0.10;;;17.20;99.90;;;;;;5067484;28;20090;-60
2023/09/22 12:11:39;;;;;;;1.02;0.20;;;17.20;99.90;;;;;;5059839;28;20430;-61
2023/09/22 12:14:05;;;;;;;2.22;0.20;;;17.30;99.90;;;;;;5063762;28;20045;-59
2023/09/22 12:16:31;;;;;;;;;;;17.50;99.90;;;;;;5065432;28;20064;-60
2023/09/22 12:18:57;;;;;;;0.50;0.20;;;17.60;99.90;;;;;;5057779;28;19959;-61
2023/09/22 12:21:23;;;;;;;;;;;17.70;99.90;;;;;;5061284;28;20040;-59
2023/09/22 12:23:49;;;;;;;2.55;0.20;;;17.70;99.90;;;;;;5065027;28;19943;-61
2023/09/22 12:26:15;;;;;;;2.47;0.10;;;17.70;99.90;;;;;;5060667;28;20033;-59
2023/09/22 12:28:41;;;;;;;1.15;0.20;;;17.80;99.90;;;;;;5066241;28;20487;-59
2023/09/22 12:31:07;;;;;;;1.40;0.30;;;17.80;99.90;;;;;;5067172;28;20028;-56
2023/09/22 12:33:32;;;;;;;1.58;0.40;;;17.80;99.90;;;;;;5069096;28;20079;-61
2023/09/22 12:35:58;;;;;;;0.73;0.20;;;17.80;99.90;;;;;;5065719;28;20380;-60
2023/09/22 12:38:25;;;;;;;2.80;0.20;;;17.80;99.90;;;;;;5071697;28;20072;-61
2023/09/22 12:40:51;;;;;;;0.45;0.17;;;17.70;99.90;;;;;;5068303;28;20078;-61
2023/09/22 12:43:17;;;;;;;0.50;0.13;;;17.60;99.90;;;;;;5066039;28;20044;-60